Time;durP1;ratioP1;P1;durP2;ratioP2;P2;SDS_P1;SDS_P2;PMS_P1;PMS_P2;Temp;Humidity;BMP_temperature;BMP_pressure;BME280_temperature;BME280_humidity;BME280_pressure;Samples;Min_cycle;Max_cycle;Signal;HPM_P1;HPM_P2
2022/02/09 00:07:03;;;;;;;12.00;8.60;;;;;;;8.47;100.00;102057.69;5051060;28;20067;-88
2022/02/09 00:09:29;;;;;;;12.32;7.60;;;;;;;8.49;100.00;102065.63;5034650;28;20100;-87
2022/02/09 00:14:33;;;;;;;13.48;8.52;;;;;;;8.46;100.00;102060.47;5036506;28;20042;-87
2022/02/09 00:23:26;;;;;;;11.98;8.10;;;;;;;8.44;100.00;102068.63;5039081;28;20401;-87
2022/02/09 01:57:08;;;;;;;6.72;5.07;;;;;;;8.34;100.00;102019.47;5039411;28;20103;-87
2022/02/09 01:59:36;;;;;;;6.03;4.78;;;;;;;8.34;100.00;102020.34;5055177;28;20046;-88
2022/02/09 02:02:05;;;;;;;7.75;4.97;;;;;;;8.36;100.00;102010.34;5039695;28;20061;-87
2022/02/09 02:04:33;;;;;;;6.05;4.60;;;;;;;8.36;100.00;102021.06;5028165;28;20061;-87
2022/02/09 02:07:02;;;;;;;7.72;4.53;;;;;;;8.39;100.00;102016.47;5041647;28;20095;-87
2022/02/09 02:09:32;;;;;;;8.27;4.32;;;;;;;8.40;100.00;102011.03;5037588;28;20045;-87
2022/02/09 02:12:14;;;;;;;8.90;4.13;;;;;;;8.40;100.00;102011.03;5049344;28;20049;-87
2022/02/09 02:14:46;;;;;;;8.15;4.78;;;;;;;8.40;100.00;102004.78;5040441;28;20054;-87
2022/02/09 02:17:27;;;;;;;8.07;4.88;;;;;;;8.39;100.00;102017.31;5045253;28;20048;-87
2022/02/09 02:19:59;;;;;;;8.20;4.93;;;;;;;8.37;100.00;101997.81;5039526;28;20103;-87
2022/02/09 02:25:42;;;;;;;9.23;5.80;;;;;;;8.34;100.00;102011.44;5029909;28;20279;-87
2022/02/09 02:47:37;;;;;;;8.50;6.72;;;;;;;8.25;100.00;101985.41;5059603;28;20056;-87
2022/02/09 02:56:57;;;;;;;10.50;6.63;;;;;;;8.22;100.00;101999.03;5003316;28;20056;-87
2022/02/09 02:58:55;;;;;;;9.52;6.75;;;;;;;8.17;100.00;101978.00;5025935;28;20190;-87
2022/02/09 03:14:55;;;;;;;11.40;7.68;;;;;;;8.10;100.00;101963.41;5020072;28;20184;-87
2022/02/09 03:17:30;;;;;;;10.63;8.15;;;;;;;8.08;100.00;101957.31;5000848;28;20042;-90
2022/02/09 03:20:14;;;;;;;8.25;7.13;;;;;;;8.07;100.00;101961.81;5037348;28;20034;-87
2022/02/09 03:23:00;;;;;;;10.55;8.05;;;;;;;8.07;100.00;101958.31;5040231;28;20465;-87
2022/02/09 03:44:57;;;;;;;8.05;6.30;;;;;;;7.98;100.00;101951.84;5048086;28;20060;-88
2022/02/09 03:57:41;;;;;;;7.95;6.13;;;;;;;8.00;100.00;101944.56;5040050;28;20045;-87
2022/02/09 04:00:08;;;;;;;7.50;5.93;;;;;;;7.99;100.00;101933.97;5031099;28;20047;-88
2022/02/09 04:02:34;;;;;;;9.50;6.55;;;;;;;8.00;100.00;101935.69;5012182;28;20064;-87
2022/02/09 04:05:07;;;;;;;7.50;5.40;;;;;;;8.00;100.00;101931.22;5032060;28;20045;-87
2022/02/09 04:07:33;;;;;;;6.85;5.72;;;;;;;8.00;100.00;101925.84;5049262;28;20050;-87
2022/02/09 04:10:05;;;;;;;7.20;6.13;;;;;;;8.02;100.00;101931.06;5038669;28;20045;-87
2022/02/09 04:12:38;;;;;;;6.95;5.55;;;;;;;8.01;100.00;101929.38;5042949;28;20725;-88
2022/02/09 04:17:45;;;;;;;7.53;5.10;;;;;;;8.01;100.00;101918.69;5020658;28;20057;-88
2022/02/09 04:36:57;;;;;;;9.02;6.55;;;;;;;8.02;100.00;101917.69;5041255;28;20056;-88
2022/02/09 04:39:31;;;;;;;8.18;6.30;;;;;;;8.02;100.00;101921.22;5055916;28;20129;-87
2022/02/09 04:44:42;;;;;;;10.68;7.20;;;;;;;8.00;100.00;101924.97;5043828;28;20054;-88
2022/02/09 04:50:06;;;;;;;9.32;6.55;;;;;;;7.95;100.00;101906.66;5034440;28;20037;-86
2022/02/09 04:52:51;;;;;;;11.60;7.90;;;;;;;7.93;100.00;101910.41;5049073;28;20049;-90
2022/02/09 04:55:48;;;;;;;9.32;7.47;;;;;;;7.94;100.00;101910.31;5023412;28;20123;-89
2022/02/09 05:03:58;;;;;;;10.82;8.73;;;;;;;7.89;100.00;101917.81;5012636;28;20048;-90
2022/02/09 05:25:51;;;;;;;15.02;10.18;;;;;;;7.65;100.00;101913.41;5025620;28;20092;-92
2022/02/09 05:28:20;;;;;;;13.93;9.80;;;;;;;7.62;100.00;101907.44;5031162;28;20195;-88
2022/02/09 05:30:51;;;;;;;16.65;11.57;;;;;;;7.64;100.00;101902.81;5019749;28;20041;-91
2022/02/09 05:33:17;;;;;;;16.00;10.85;;;;;;;7.60;100.00;101896.88;5030655;28;20557;-87
2022/02/09 05:35:43;;;;;;;16.50;11.00;;;;;;;7.61;100.00;101897.72;5031599;28;20079;-88
2022/02/09 05:38:12;;;;;;;18.60;11.93;;;;;;;7.60;100.00;101901.38;5039649;28;20105;-89
2022/02/09 05:40:39;;;;;;;;;;;;;;;7.59;100.00;101899.66;5036430;28;20393;-88
2022/02/09 05:43:06;;;;;;;20.13;13.80;;;;;;;7.51;100.00;101907.41;5047734;28;19921;-89
2022/02/09 05:53:18;;;;;;;21.13;14.60;;;;;;;7.49;100.00;101904.00;5036014;28;20057;-92
2022/02/09 05:56:06;;;;;;;19.80;13.13;;;;;;;7.49;100.00;101914.69;5024910;28;20041;-89
2022/02/09 06:00:58;;;;;;;24.20;14.73;;;;;;;7.45;100.00;101909.59;5042233;28;20501;-91
2022/02/09 06:03:24;;;;;;;23.45;15.20;;;;;;;7.48;100.00;101897.81;5028077;28;20037;-92
2022/02/09 06:05:50;;;;;;;23.00;14.70;;;;;;;7.46;100.00;101902.44;5031713;28;20037;-90
2022/02/09 06:08:15;;;;;;;23.23;14.40;;;;;;;7.49;100.00;101901.34;5021986;28;20510;-90
2022/02/09 06:10:50;;;;;;;21.60;13.75;;;;;;;7.48;100.00;101903.16;5024215;28;20083;-92
2022/02/09 06:13:46;;;;;;;20.85;14.20;;;;;;;7.49;100.00;101898.66;5038736;28;20045;-89
2022/02/09 06:21:45;;;;;;;23.98;16.35;;;;;;;7.44;100.00;101888.31;5036309;28;20097;-91
2022/02/09 06:24:11;;;;;;;24.73;16.48;;;;;;;7.45;100.00;101890.91;5026562;28;20046;-88
2022/02/09 06:26:36;;;;;;;20.58;14.48;;;;;;;7.44;100.00;101883.84;5029366;28;20041;-89
2022/02/09 06:29:02;;;;;;;20.73;14.25;;;;;;;7.46;100.00;101889.91;5024553;28;20046;-91
2022/02/09 06:31:34;;;;;;;19.98;11.70;;;;;;;7.46;100.00;101900.59;5027427;28;20049;-89
2022/02/09 06:37:39;;;;;;;21.98;15.38;;;;;;;7.44;100.00;101904.34;5042290;28;20033;-90
2022/02/09 06:40:52;;;;;;;21.65;14.88;;;;;;;7.41;100.00;101912.59;5027332;28;20108;-92
2022/02/09 06:43:17;;;;;;;21.15;13.18;;;;;;;7.39;100.00;101898.50;4998750;28;20045;-92
2022/02/09 06:45:46;;;;;;;21.40;12.85;;;;;;;7.38;100.00;101892.31;5032557;28;20036;-91
2022/02/09 06:48:16;;;;;;;20.98;12.05;;;;;;;7.37;100.00;101898.63;5023311;28;20048;-92
2022/02/09 06:50:53;;;;;;;21.55;14.90;;;;;;;7.39;100.00;101902.06;5029151;28;20079;-92
2022/02/09 06:55:54;;;;;;;19.45;12.98;;;;;;;7.36;100.00;101912.09;5043818;28;20489;-94
2022/02/09 07:01:06;;;;;;;21.67;12.82;;;;;;;7.38;100.00;101904.81;5023925;28;20053;-89
2022/02/09 07:03:32;;;;;;;24.33;15.38;;;;;;;7.35;100.00;101897.03;5039460;28;20045;-87
2022/02/09 07:05:57;;;;;;;26.05;17.80;;;;;;;7.36;100.00;101904.91;5027185;28;20053;-87
2022/02/09 07:08:23;;;;;;;25.83;19.42;;;;;;;7.36;100.00;101904.06;5022655;28;20045;-89
2022/02/09 07:10:48;;;;;;;25.13;15.52;;;;;;;7.34;100.00;101904.22;5027495;28;20075;-89
2022/02/09 07:13:15;;;;;;;27.05;17.15;;;;;;;7.34;100.00;101901.53;5019666;28;20526;-89
2022/02/09 07:15:44;;;;;;;25.65;16.20;;;;;;;7.31;100.00;101901.78;5027763;28;20122;-88
2022/02/09 07:18:13;;;;;;;28.00;18.50;;;;;;;7.34;100.00;101901.53;5024362;28;20041;-88
2022/02/09 07:23:16;;;;;;;;;;;;;;;7.33;100.00;101910.50;5030329;28;20040;-88
2022/02/09 07:25:49;;;;;;;26.35;17.48;;;;;;;7.26;100.00;101914.63;5031959;28;19925;-90
2022/02/09 07:28:14;;;;;;;22.10;15.15;;;;;;;7.27;100.00;101908.28;5019701;28;20113;-89
2022/02/09 07:30:40;;;;;;;26.33;19.25;;;;;;;7.30;100.00;101904.53;5017229;28;20058;-87
2022/02/09 07:33:06;;;;;;;25.50;18.33;;;;;;;7.30;100.00;101913.41;5022785;28;20038;-88
2022/02/09 07:35:31;;;;;;;22.25;14.55;;;;;;;7.31;100.00;101915.13;4992633;28;20038;-88
2022/02/09 07:37:58;;;;;;;20.85;16.85;;;;;;;7.34;100.00;101914.03;5027845;28;20087;-90
2022/02/09 07:40:23;;;;;;;23.27;14.57;;;;;;;7.32;100.00;101908.81;5018045;28;20046;-88
2022/02/09 07:43:04;;;;;;;19.33;13.45;;;;;;;7.30;100.00;101894.72;5028900;28;20060;-89
2022/02/09 07:48:40;;;;;;;19.98;14.50;;;;;;;7.30;100.00;101900.06;5027634;28;20060;-89
2022/02/09 07:53:59;;;;;;;21.63;13.88;;;;;;;7.28;100.00;101906.47;5012619;28;20711;-88
2022/02/09 07:56:32;;;;;;;19.85;14.38;;;;;;;7.29;100.00;101903.69;5026575;28;20124;-89
2022/02/09 07:58:58;;;;;;;18.02;13.30;;;;;;;7.32;100.00;101907.97;5017121;28;20062;-87
2022/02/09 08:01:24;;;;;;;19.33;14.05;;;;;;;7.32;100.00;101913.31;5010033;28;20046;-89
2022/02/09 08:03:53;;;;;;;17.83;11.50;;;;;;;7.28;100.00;101907.34;5013137;28;20047;-88
2022/02/09 08:06:23;;;;;;;18.67;11.13;;;;;;;7.28;100.00;101917.16;5027716;28;20128;-88
2022/02/09 08:08:50;;;;;;;15.98;10.90;;;;;;;7.27;100.00;101918.13;5022270;28;20041;-88
2022/02/09 08:11:22;;;;;;;15.90;10.82;;;;;;;7.29;100.00;101914.38;5022612;28;20038;-89
2022/02/09 08:27:41;;;;;;;13.32;10.05;;;;;;;7.29;100.00;101903.69;5015511;28;20044;-87
2022/02/09 08:32:43;;;;;;;13.35;9.25;;;;;;;7.27;100.00;101896.78;5021382;28;20053;-88
2022/02/09 08:35:09;;;;;;;13.75;10.70;;;;;;;7.30;100.00;101900.06;5023521;28;20087;-88
2022/02/09 08:37:35;;;;;;;12.48;7.82;;;;;;;7.29;100.00;101893.03;5016202;28;20072;-87
2022/02/09 08:40:00;;;;;;;13.32;8.70;;;;;;;7.29;100.00;101893.03;5004908;28;20049;-89
2022/02/09 08:42:26;;;;;;;13.40;7.82;;;;;;;7.27;100.00;101878.94;5012616;28;20052;-87
2022/02/09 08:44:53;;;;;;;15.15;8.55;;;;;;;7.29;100.00;101874.34;5010913;28;20049;-88
2022/02/09 08:47:19;;;;;;;12.90;8.85;;;;;;;7.29;100.00;101871.66;5004756;28;20403;-88
2022/02/09 08:49:45;;;;;;;12.75;9.38;;;;;;;7.32;100.00;101871.44;5020565;28;20142;-90
2022/02/09 08:52:11;;;;;;;14.10;9.82;;;;;;;7.33;100.00;101881.13;5002136;28;20132;-88
2022/02/09 08:54:36;;;;;;;13.82;10.15;;;;;;;7.32;100.00;101873.25;5021907;28;20042;-89
2022/02/09 08:57:08;;;;;;;13.90;8.73;;;;;;;7.34;100.00;101872.16;4995638;28;20045;-88
2022/02/09 08:59:34;;;;;;;16.13;10.30;;;;;;;7.34;100.00;101869.50;5007611;28;20038;-88
2022/02/09 09:02:04;;;;;;;15.45;9.50;;;;;;;7.34;100.00;101864.16;4980439;28;20112;-89
2022/02/09 09:04:38;;;;;;;15.15;10.38;;;;;;;7.35;100.00;101881.03;5017176;28;20491;-88
2022/02/09 09:07:12;;;;;;;16.17;10.63;;;;;;;7.34;100.00;101869.50;5006483;28;20470;-87
2022/02/09 09:09:50;;;;;;;17.83;10.98;;;;;;;7.37;100.00;101866.59;5014855;28;20033;-88
2022/02/09 09:15:27;;;;;;;17.95;13.40;;;;;;;7.39;100.00;101882.47;5028793;28;20037;-88
2022/02/09 10:00:03;;;;;;;23.35;17.52;;;;;;;7.44;100.00;101915.03;5024889;28;20103;-89
2022/02/09 10:02:10;;;;;;;23.80;14.23;;;;;;;7.44;100.00;101905.19;5026784;28;20053;-88
2022/02/09 10:32:51;;;;;;;23.92;15.00;;;;;;;7.55;100.00;101896.38;5027727;28;20068;-90
2022/02/09 10:35:29;;;;;;;21.80;14.85;;;;;;;7.56;100.00;101913.25;5026434;28;20045;-88
2022/02/09 10:37:58;;;;;;;23.23;14.57;;;;;;;7.59;100.00;101926.38;5021652;28;20046;-88
2022/02/09 10:40:36;;;;;;;22.75;14.05;;;;;;;7.60;100.00;101915.56;5026166;28;20072;-88
2022/02/09 10:43:04;;;;;;;21.27;15.20;;;;;;;7.60;100.00;101906.72;5024313;28;20065;-89
2022/02/09 10:45:44;;;;;;;22.48;15.35;;;;;;;7.62;100.00;101927.00;5040021;28;20077;-88
2022/02/09 10:48:32;;;;;;;23.33;15.77;;;;;;;7.66;100.00;101915.09;5023410;28;20510;-89
2022/02/09 10:51:21;;;;;;;26.77;15.50;;;;;;;7.67;100.00;101919.47;5008960;28;20057;-89
2022/02/09 10:54:13;;;;;;;22.75;13.85;;;;;;;7.69;100.00;101919.38;5024818;28;20042;-90
2022/02/09 10:56:44;;;;;;;25.70;16.02;;;;;;;7.72;100.00;101904.91;5021281;28;20100;-88
2022/02/09 10:59:13;;;;;;;19.77;14.25;;;;;;;7.75;100.00;101910.03;5055505;28;20040;-87
2022/02/09 11:01:40;;;;;;;21.23;13.55;;;;;;;7.76;100.00;101907.22;5022544;28;20049;-89
2022/02/09 11:04:07;;;;;;;19.95;14.20;;;;;;;7.78;100.00;101909.78;5000456;28;20049;-88
2022/02/09 11:06:36;;;;;;;19.02;13.38;;;;;;;7.80;100.00;101913.19;5019493;28;20073;-88
2022/02/09 11:09:08;;;;;;;17.00;12.23;;;;;;;7.82;100.00;101909.41;5024570;28;20435;-89
2022/02/09 11:11:39;;;;;;;20.17;13.50;;;;;;;7.84;100.00;101890.59;5022729;28;20099;-90
2022/02/09 11:14:06;;;;;;;19.40;13.20;;;;;;;7.87;100.00;101896.53;5017775;28;20044;-89
2022/02/09 11:16:34;;;;;;;19.23;11.77;;;;;;;7.89;100.00;101902.63;5014634;28;20084;-88
2022/02/09 11:19:01;;;;;;;23.23;16.27;;;;;;;7.90;100.00;101898.97;5005572;28;20041;-89
2022/02/09 11:21:34;;;;;;;18.48;12.27;;;;;;;7.89;100.00;101899.97;4994543;28;20465;-88
2022/02/09 11:24:08;;;;;;;19.75;14.80;;;;;;;7.96;100.00;101902.16;4986246;28;20050;-90
2022/02/09 11:26:57;;;;;;;19.92;12.82;;;;;;;7.95;100.00;101916.50;4987253;28;20129;-89
2022/02/09 11:29:47;;;;;;;15.97;10.87;;;;;;;7.97;100.00;101909.19;5005948;28;20079;-88
2022/02/09 11:32:44;;;;;;;16.70;10.75;;;;;;;7.97;100.00;101909.19;5011927;28;20139;-88
2022/02/09 11:38:16;;;;;;;16.73;10.27;;;;;;;7.97;100.00;101911.84;5013628;28;20045;-89
2022/02/09 11:43:35;;;;;;;18.15;10.93;;;;;;;8.04;100.00;101907.75;5027205;28;20041;-90
2022/02/09 11:58:34;;;;;;;13.98;9.43;;;;;;;8.13;100.00;101896.31;4992545;28;20050;-88
2022/02/09 12:09:42;;;;;;;12.40;9.55;;;;;;;8.27;100.00;101880.03;5017405;28;20049;-88
2022/02/09 12:12:13;;;;;;;13.35;9.80;;;;;;;8.31;100.00;101881.47;5005561;28;20374;-89
2022/02/09 12:22:50;;;;;;;16.02;9.50;;;;;;;8.38;100.00;101875.66;5003531;28;20076;-87
2022/02/09 12:25:16;;;;;;;13.77;9.88;;;;;;;8.44;100.00;101867.16;4997820;28;20181;-89
2022/02/09 12:27:49;;;;;;;12.93;9.43;;;;;;;8.49;100.00;101859.63;4978985;28;20133;-87
2022/02/09 12:30:20;;;;;;;13.68;9.77;;;;;;;8.49;100.00;101863.16;5011647;28;20053;-87
2022/02/09 12:32:46;;;;;;;16.33;10.25;;;;;;;8.50;100.00;101870.19;4992680;28;20432;-88
2022/02/09 12:35:16;;;;;;;15.00;9.75;;;;;;;8.57;100.00;101855.34;5037491;28;20122;-89
2022/02/09 12:37:44;;;;;;;12.95;9.82;;;;;;;8.61;100.00;101855.94;5029313;28;20509;-89
2022/02/09 12:40:19;;;;;;;10.57;8.15;;;;;;;8.64;100.00;101861.03;5023376;28;20444;-88
2022/02/09 12:42:47;;;;;;;12.18;8.68;;;;;;;8.68;100.00;101864.31;5022725;28;20406;-88
2022/02/09 12:45:14;;;;;;;10.32;7.03;;;;;;;8.69;100.00;101857.97;5029075;28;20042;-88
2022/02/09 12:47:49;;;;;;;10.40;7.13;;;;;;;8.71;100.00;101862.22;5021600;28;20038;-90
2022/02/09 12:50:20;;;;;;;11.23;7.93;;;;;;;8.76;100.00;101859.19;5012190;28;20042;-88
2022/02/09 12:52:47;;;;;;;12.32;7.10;;;;;;;8.78;100.00;101868.78;5025002;28;20401;-89
2022/02/09 12:55:28;;;;;;;11.50;7.88;;;;;;;8.82;100.00;101870.22;5004397;28;20053;-87
2022/02/09 12:57:53;;;;;;;10.90;7.60;;;;;;;8.86;100.00;101861.94;5025653;28;20176;-87
2022/02/09 13:00:40;;;;;;;11.05;6.80;;;;;;;8.86;100.00;101860.13;5011765;28;20120;-87
2022/02/09 13:03:11;;;;;;;8.57;6.47;;;;;;;8.88;100.00;101862.66;5033456;28;20050;-89
2022/02/09 13:05:56;;;;;;;9.48;6.82;;;;;;;8.89;100.00;101864.34;5031103;28;20042;-88
2022/02/09 13:08:24;;;;;;;9.75;6.72;;;;;;;8.87;100.00;101860.97;5015224;28;20033;-88
2022/02/09 13:10:58;;;;;;;10.13;7.60;;;;;;;8.90;100.00;101864.25;5035822;28;20593;-88
2022/02/09 13:13:29;;;;;;;11.30;7.78;;;;;;;8.86;100.00;101861.94;5016949;28;20351;-89
2022/02/09 13:51:53;;;;;;;9.27;7.50;;;;;;;8.86;100.00;101838.72;5022494;28;29282;-87
2022/02/09 14:18:45;;;;;;;11.40;8.35;;;;;;;9.01;100.00;101860.69;5020648;28;20064;-87
2022/02/09 14:31:40;;;;;;;13.07;10.48;;;;;;;9.04;100.00;101849.72;5010899;28;20766;-87
2022/02/09 14:56:27;;;;;;;14.02;10.68;;;;;;;9.04;100.00;101850.56;5032162;28;20378;-89
2022/02/09 14:58:58;;;;;;;12.57;9.57;;;;;;;9.03;100.00;101850.69;5032462;28;20553;-88
2022/02/09 15:01:36;;;;;;;16.25;10.27;;;;;;;9.00;100.00;101848.25;5013225;28;20115;-89
2022/02/09 15:05:09;;;;;;;12.25;9.27;;;;;;;8.98;100.00;101852.91;5017208;28;20045;-88
2022/02/09 15:09:42;;;;;;;15.82;11.40;;;;;;;8.96;100.00;101854.84;5052790;28;20124;-87
2022/02/09 15:12:23;;;;;;;13.77;10.05;;;;;;;8.91;100.00;101854.38;4983807;28;20042;-87
2022/02/09 15:17:38;;;;;;;16.13;9.93;;;;;;;8.87;100.00;101869.00;5018903;28;20040;-89
2022/02/09 15:20:35;;;;;;;14.27;11.80;;;;;;;8.88;100.00;101870.69;5027306;28;20049;-89
2022/02/09 15:22:56;;;;;;;13.10;8.50;;;;;;;8.83;100.00;101865.72;5027960;28;20049;-88
2022/02/09 15:25:22;;;;;;;14.57;10.50;;;;;;;8.82;100.00;101870.22;5031120;28;20116;-88
2022/02/09 15:27:53;;;;;;;13.35;9.52;;;;;;;8.81;100.00;101867.69;5024789;28;20805;-88
2022/02/09 15:30:19;;;;;;;16.73;11.20;;;;;;;8.79;100.00;101875.00;5007865;28;20033;-88
2022/02/09 15:32:50;;;;;;;14.93;11.00;;;;;;;8.81;100.00;101862.34;5026481;28;20078;-87
2022/02/09 15:35:25;;;;;;;13.85;10.65;;;;;;;8.78;100.00;101867.94;5025770;28;20038;-86
2022/02/09 15:37:59;;;;;;;15.02;12.40;;;;;;;8.78;100.00;101852.72;5021460;28;20066;-88
2022/02/09 15:40:41;;;;;;;14.13;11.40;;;;;;;8.77;100.00;101867.06;5012522;28;20122;-87
2022/02/09 16:10:33;;;;;;;20.63;15.32;;;;;;;8.53;100.00;101864.59;5019967;28;20045;-87
2022/02/09 16:34:25;;;;;;;23.90;15.68;;;;;;;8.42;100.00;101839.69;5024029;28;20044;-89
2022/02/09 16:38:00;;;;;;;19.15;14.82;;;;;;;8.36;100.00;101836.50;4991563;28;20045;-89
2022/02/09 16:45:10;;;;;;;24.20;17.00;;;;;;;8.38;100.00;101827.50;5021712;28;20115;-88
2022/02/09 16:47:50;;;;;;;19.85;16.60;;;;;;;8.36;100.00;101836.50;4991883;28;20045;-89
2022/02/09 16:50:18;;;;;;;21.88;18.00;;;;;;;8.35;100.00;101836.63;4996684;28;20044;-86
2022/02/09 16:52:57;;;;;;;23.88;18.77;;;;;;;8.34;100.00;101833.13;5000108;28;20132;-88
2022/02/09 17:19:41;;;;;;;23.50;17.95;;;;;;;8.36;100.00;101857.03;5023910;28;20103;-86
2022/02/09 17:22:08;;;;;;;22.45;18.17;;;;;;;8.35;100.00;101844.66;5025427;28;20045;-87
2022/02/09 17:24:34;;;;;;;23.98;15.68;;;;;;;8.35;100.00;101845.50;5019676;28;20042;-87
2022/02/09 17:27:01;;;;;;;21.15;16.60;;;;;;;8.34;100.00;101843.81;5009274;28;20077;-88
2022/02/09 17:30:13;;;;;;;21.08;16.58;;;;;;;8.34;100.00;101843.81;4998138;28;20089;-87
2022/02/09 17:32:26;;;;;;;24.45;17.27;;;;;;;8.34;100.00;101842.94;5026892;28;20568;-88
2022/02/09 17:35:30;;;;;;;22.13;16.13;;;;;;;8.31;100.00;101837.84;5024323;28;20128;-88
2022/02/09 17:56:53;;;;;;;24.42;18.38;;;;;;;8.20;100.00;101836.06;5019835;28;20041;-86
2022/02/09 17:59:24;;;;;;;27.55;19.83;;;;;;;8.23;100.00;101840.28;5024154;28;20068;-89
2022/02/09 18:01:50;;;;;;;25.50;18.77;;;;;;;8.19;100.00;101837.00;5019486;28;20756;-88
2022/02/09 18:04:18;;;;;;;27.00;17.92;;;;;;;8.19;100.00;101834.34;5021447;28;20505;-87
2022/02/09 18:06:54;;;;;;;27.55;19.30;;;;;;;8.18;100.00;101837.16;5020693;28;20103;-88
2022/02/09 18:09:27;;;;;;;29.05;21.08;;;;;;;8.17;100.00;101836.31;5009763;28;20086;-86
2022/02/09 18:30:33;;;;;;;28.88;19.23;;;;;;;8.17;100.00;101844.31;5011595;28;20056;-86
2022/02/09 18:43:28;;;;;;;30.48;21.23;;;;;;;8.12;100.00;101830.47;5022663;28;20096;-87
2022/02/09 18:46:06;;;;;;;28.75;21.08;;;;;;;8.12;100.00;101831.31;5011019;28;20053;-86
2022/02/09 18:56:49;;;;;;;30.90;22.50;;;;;;;8.11;100.00;101824.28;5035516;28;20041;-87
2022/02/09 18:57:30;;;;;;;33.00;22.45;;;;;;;8.07;100.00;101822.81;5033077;28;20051;-87
2022/02/09 19:00:21;;;;;;;32.67;23.17;;;;;;;8.07;100.00;101820.13;5019863;28;20050;-87
2022/02/09 19:03:02;;;;;;;34.20;24.08;;;;;;;8.06;100.00;101821.13;5036377;28;20068;-87
2022/02/09 19:45:52;;;;;;;36.03;27.52;;;;;;;7.98;100.00;101796.81;5039587;28;20040;-89
2022/02/09 19:48:39;;;;;;;41.13;28.30;;;;;;;7.99;100.00;101795.00;5033737;28;20033;-88
2022/02/09 19:53:38;;;;;;;38.45;27.08;;;;;;;7.98;100.00;101790.63;5033246;28;20037;-87
2022/02/09 19:56:12;;;;;;;38.15;26.30;;;;;;;7.98;100.00;101782.59;5040272;28;20120;-88
2022/02/09 19:58:44;;;;;;;35.83;24.85;;;;;;;7.97;100.00;101775.53;4993479;28;20045;-89
2022/02/09 20:01:14;;;;;;;36.13;26.65;;;;;;;7.99;100.00;101785.13;5033497;28;20037;-89
2022/02/09 20:03:41;;;;;;;37.40;23.92;;;;;;;7.98;100.00;101771.91;5029646;28;20124;-88
2022/02/09 20:06:07;;;;;;;34.58;21.60;;;;;;;8.00;100.00;101775.28;5047356;28;20167;-89
2022/02/09 20:08:37;;;;;;;35.58;21.65;;;;;;;8.02;100.00;101778.69;5031926;28;20500;-88
2022/02/09 20:11:09;;;;;;;36.30;23.48;;;;;;;8.01;100.00;101771.66;4991119;28;20054;-89
2022/02/09 20:13:35;;;;;;;34.13;22.40;;;;;;;8.02;100.00;101774.19;4977276;28;20069;-88
2022/02/09 20:16:01;;;;;;;36.33;25.67;;;;;;;8.02;100.00;101773.34;4965757;28;20141;-87
2022/02/09 20:18:28;;;;;;;33.33;22.58;;;;;;;7.99;100.00;101773.59;4977766;28;20422;-87
2022/02/09 20:20:56;;;;;;;37.25;25.80;;;;;;;7.97;100.00;101781.75;4981806;28;20761;-87
2022/02/09 20:23:22;;;;;;;36.90;23.90;;;;;;;7.98;100.00;101785.28;4969529;28;20038;-88
2022/02/09 20:25:48;;;;;;;37.63;25.27;;;;;;;7.95;100.00;101773.00;4985956;28;20402;-88
2022/02/09 20:28:14;;;;;;;40.50;26.05;;;;;;;7.94;100.00;101781.13;4998041;28;20042;-88
2022/02/09 20:30:45;;;;;;;38.97;27.13;;;;;;;7.93;100.00;101777.63;5004191;28;20092;-88
2022/02/09 20:33:15;;;;;;;39.22;24.27;;;;;;;7.95;100.00;101772.16;4974042;28;20443;-87
2022/02/09 20:35:41;;;;;;;39.65;25.50;;;;;;;7.91;100.00;101774.22;4964743;28;20069;-89
2022/02/09 20:38:11;;;;;;;42.20;26.13;;;;;;;7.91;100.00;101771.53;4989185;28;20537;-88
2022/02/09 20:40:54;;;;;;;45.15;29.35;;;;;;;7.90;100.00;101761.81;5013507;28;20073;-88
2022/02/09 20:43:22;;;;;;;44.65;28.33;;;;;;;7.85;100.00;101758.66;5015485;28;20117;-89
2022/02/09 20:45:52;;;;;;;44.60;27.90;;;;;;;7.82;100.00;101769.59;4984182;28;20038;-89
2022/02/09 20:48:24;;;;;;;48.75;28.17;;;;;;;7.84;100.00;101770.34;4991251;28;20121;-88
2022/02/09 20:50:49;;;;;;;47.45;28.95;;;;;;;7.83;100.00;101769.50;4994265;28;20034;-88
2022/02/09 20:53:15;;;;;;;45.65;29.10;;;;;;;7.81;100.00;101766.09;4993791;28;20638;-89
2022/02/09 20:55:43;;;;;;;48.92;30.73;;;;;;;7.79;100.00;101760.00;5006953;28;20053;-88
2022/02/09 20:58:09;;;;;;;52.07;29.33;;;;;;;7.79;100.00;101756.50;5002912;28;20058;-89
2022/02/09 21:00:53;;;;;;;52.08;32.33;;;;;;;7.79;100.00;101756.50;4991363;28;20313;-88
2022/02/09 21:08:44;;;;;;;53.30;33.28;;;;;;;7.73;100.00;101739.13;5027530;28;20041;-87
2022/02/09 21:13:57;;;;;;;53.10;30.42;;;;;;;7.69;100.00;101733.19;5031008;28;20283;-89
2022/02/09 21:19:34;;;;;;;53.58;31.67;;;;;;;7.68;100.00;101741.31;5028252;28;20045;-89
2022/02/09 21:25:13;;;;;;;53.75;35.38;;;;;;;7.68;100.00;101738.63;5028075;28;20052;-87
2022/02/09 21:44:29;;;;;;;55.05;31.73;;;;;;;7.65;100.00;101731.75;5037175;28;20045;-89
2022/02/09 21:46:56;;;;;;;57.50;35.58;;;;;;;7.67;100.00;101726.25;5015759;28;20037;-87
2022/02/09 22:00:16;;;;;;;54.17;34.05;;;;;;;7.59;100.00;101712.66;5026425;28;20045;-89
2022/02/09 22:31:53;;;;;;;56.60;31.30;;;;;;;7.49;100.00;101671.66;5042139;28;20499;-88
2022/02/09 22:45:54;;;;;;;56.25;34.40;;;;;;;7.37;100.00;101647.63;5016444;28;20149;-89
2022/02/09 22:50:55;;;;;;;54.40;33.90;;;;;;;7.33;100.00;101643.47;5022906;28;20042;-86
2022/02/09 22:56:05;;;;;;;49.40;28.70;;;;;;;7.32;100.00;101647.13;5029341;28;20551;-86
2022/02/09 22:58:30;;;;;;;53.10;32.35;;;;;;;7.33;100.00;101643.47;5028773;28;20045;-87
2022/02/09 23:03:41;;;;;;;48.80;31.00;;;;;;;7.35;100.00;101636.22;5019879;28;20088;-88
2022/02/09 23:11:42;;;;;;;44.17;31.02;;;;;;;7.42;100.00;101629.41;5024085;28;20470;-90
